Terminal Aerodrome Forecast
Issued by NWS Quad Cities IA IL

Home | Current Version | Previous Version | Text Only | Print | Product List | Glossary On
Versions: 1 2 3 4 5 6 7 8 9 10 11 12 13 14 15 16 17 18 19 20 21 22
000
FTUS43 KDVN 012000 AAA
TAFMLI
TAF AMD
KMLI 012028Z 0120/0218 05018G27KT 1/4SM +SN FZFG VV008
     FM012130 04019G29KT 1/2SM -SN BLSN OVC012
     FM020000 02016G26KT 1SM -SN BLSN OVC015
     FM020200 36014G24KT 3SM -SHSN BLSN OVC015
     FM020400 34013G22KT 5SM BLSN BKN020
     FM020700 33011KT P6SM SCT020=

USA.gov is the U.S. government's official web portal to all federal, state and local government web resources and services.